Time;durP1;ratioP1;P1;durP2;ratioP2;P2;SDS_P1;SDS_P2;PMS_P1;PMS_P2;Temp;Humidity;BMP_temperature;BMP_pressure;BME280_temperature;BME280_humidity;BME280_pressure;Samples;Min_cycle;Max_cycle;Signal;HPM_P1;HPM_P2
2022/01/14 00:01:25;;;;;;;;;;;;;;;-2.85;100.00;101621.28;5034577;28;20289;-76
2022/01/14 00:03:50;;;;;;;;;;;;;;;-2.87;100.00;101612.63;5028096;28;20066;-77
2022/01/14 00:06:16;;;;;;;;;;;;;;;-2.90;100.00;101618.69;5050099;28;19917;-76
2022/01/14 00:08:41;;;;;;;;;;;;;;;-2.93;100.00;101624.72;5038775;28;19916;-77
2022/01/14 00:11:14;;;;;;;;;;;;;;;-2.95;100.00;101610.66;5048906;28;19979;-77
2022/01/14 00:16:05;;;;;;;;;;;;;;;-2.96;100.00;101614.50;5049545;28;19944;-77
2022/01/14 00:18:31;;;;;;;;;;;;;;;-2.96;100.00;101606.34;5034306;28;20019;-77
2022/01/14 00:20:57;;;;;;;;;;;;;;;-2.97;100.00;101612.06;5035159;28;19917;-77
2022/01/14 00:23:30;;;;;;;;;;;;;;;-2.97;100.00;101610.16;5050029;28;19963;-77
2022/01/14 00:34:08;;;;;;;;;;;;;;;-3.06;100.00;101594.91;5049960;28;19916;-77
2022/01/14 00:36:33;;;;;;;;;;;;;;;-3.11;100.00;101598.53;5052219;28;20413;-82
2022/01/14 00:38:58;;;;;;;;;;;;;;;-3.11;100.00;101601.25;5056486;28;19957;-82
2022/01/14 00:41:24;;;;;;;;;;;;;;;-3.10;100.00;101600.16;5058265;28;19919;-82
2022/01/14 00:43:52;;;;;;;;;;;;;;;-3.12;100.00;101593.44;5048028;28;19924;-82
2022/01/14 00:46:19;;;;;;;;;;;;;;;-3.12;100.00;101585.31;5042027;28;19952;-82
2022/01/14 00:48:44;;;;;;;;;;;;;;;-3.11;100.00;101593.13;5051146;28;20451;-82
2022/01/14 00:51:10;;;;;;;;;;;;;;;-3.10;100.00;101592.00;5047879;28;19921;-82
2022/01/14 00:53:35;;;;;;;;;;;;;;;-3.11;100.00;101590.41;5052232;28;20282;-82
2022/01/14 00:56:25;;;;;;;;;;;;;;;-3.09;100.00;101582.78;5050548;28;19963;-82
2022/01/14 01:01:30;;;;;;;;;;;;;;;-3.12;100.00;101594.25;5049077;28;19969;-82
2022/01/14 01:03:55;;;;;;;;;;;;;;;-3.13;100.00;101589.13;5051196;28;19925;-82
2022/01/14 01:06:21;;;;;;;;;;;;;;;-3.12;100.00;101601.59;5051055;28;19923;-82
2022/01/14 01:08:49;;;;;;;;;;;;;;;-3.16;100.00;101590.53;5032738;28;19970;-82
2022/01/14 01:11:14;;;;;;;;;;;;;;;-3.17;100.00;101590.84;5047698;28;20007;-82
2022/01/14 01:13:47;;;;;;;;;;;;;;;-3.19;100.00;101584.94;5049987;28;20025;-82
2022/01/14 01:16:13;;;;;;;;;;;;;;;-3.21;100.00;101585.22;5033643;28;20370;-82
2022/01/14 01:18:38;;;;;;;;;;;;;;;-3.20;100.00;101586.84;5053272;28;19917;-82
2022/01/14 01:21:03;;;;;;;;;;;;;;;-3.23;100.00;101573.88;5034576;28;20766;-82
2022/01/14 01:23:29;;;;;;;;;;;;;;;-3.21;100.00;101574.38;5041449;28;19924;-82
2022/01/14 01:26:06;;;;;;;;;;;;;;;-3.18;100.00;101575.66;5035271;28;19917;-82
2022/01/14 01:28:39;;;;;;;;;;;;;;;-3.20;100.00;101567.84;5050487;28;20390;-82
2022/01/14 01:31:34;;;;;;;;;;;;;;;-3.19;100.00;101565.94;5048711;28;20378;-82
2022/01/14 01:33:50;;;;;;;;;;;;;;;-3.22;100.00;101556.47;5026868;28;20365;-82
2022/01/14 01:36:15;;;;;;;;;;;;;;;-3.30;100.00;101554.50;5037996;28;19917;-82
2022/01/14 01:38:40;;;;;;;;;;;;;;;-3.34;100.00;101557.03;5055725;28;20281;-82
2022/01/14 01:41:07;;;;;;;;;;;;;;;-3.32;100.00;101557.53;5034995;28;19921;-81
2022/01/14 01:43:32;;;;;;;;;;;;;;;-3.31;100.00;101537.41;5036743;28;19917;-82
2022/01/14 01:45:59;;;;;;;;;;;;;;;-3.31;100.00;101537.41;5044818;28;19917;-82
2022/01/14 01:48:27;;;;;;;;;;;;;;;-3.34;100.00;101539.94;5052095;28;19913;-82
2022/01/14 01:50:52;;;;;;;;;;;;;;;-3.32;100.00;101535.03;5049860;28;19921;-83
2022/01/14 01:53:18;;;;;;;;;;;;;;;-3.32;100.00;101540.44;5050439;28;19924;-77
2022/01/14 01:55:43;;;;;;;;;;;;;;;-3.33;100.00;101538.84;5052277;28;20388;-77
2022/01/14 01:58:09;;;;;;;;;;;;;;;-3.34;100.00;101529.09;5035461;28;19917;-77
2022/01/14 02:00:34;;;;;;;;;;;;;;;-3.36;100.00;101534.03;5032139;28;20371;-77
2022/01/14 02:03:00;;;;;;;;;;;;;;;-3.37;100.00;101527.00;5042863;28;20016;-76
2022/01/14 02:05:28;;;;;;;;;;;;;;;-3.37;100.00;101524.28;5031078;28;19923;-76
2022/01/14 02:07:53;;;;;;;;;;;;;;;-3.34;100.00;101516.31;5034375;28;19916;-76
2022/01/14 02:10:19;;;;;;;;;;;;;;;-3.41;100.00;101520.59;5033329;28;19979;-77
2022/01/14 02:12:51;;;;;;;;;;;;;;;-3.40;100.00;101514.88;5049958;28;20011;-76
2022/01/14 02:15:29;;;;;;;;;;;;;;;-3.44;100.00;101510.34;5034492;28;20450;-76
2022/01/14 02:23:10;;;;;;;;;;;;;;;-3.50;100.00;101511.56;5041510;28;19921;-76
2022/01/14 02:25:36;;;;;;;;;;;;;;;-3.56;100.00;101501.97;5045023;28;19921;-76
2022/01/14 02:28:05;;;;;;;;;;;;;;;-3.60;100.00;101506.38;5035475;28;19917;-76
2022/01/14 02:30:31;;;;;;;;;;;;;;;-3.57;100.00;101497.63;5033869;28;20369;-77
2022/01/14 02:32:57;;;;;;;;;;;;;;;-3.55;100.00;101493.50;5033348;28;19921;-81
2022/01/14 02:35:22;;;;;;;;;;;;;;;-3.55;100.00;101495.41;5046603;28;20378;-82
2022/01/14 02:37:48;;;;;;;;;;;;;;;-3.54;100.00;101494.31;5028687;28;20384;-83
2022/01/14 02:40:13;;;;;;;;;;;;;;;-3.55;100.00;101492.69;5032524;28;19917;-83
2022/01/14 02:42:39;;;;;;;;;;;;;;;-3.56;100.00;101485.69;5037502;28;19952;-83
2022/01/14 02:45:07;;;;;;;;;;;;;;;-3.55;100.00;101482.66;5043786;28;19959;-83
2022/01/14 02:47:33;;;;;;;;;;;;;;;-3.53;100.00;101466.06;5049003;28;19916;-83
2022/01/14 02:49:58;;;;;;;;;;;;;;;-3.55;100.00;101471.78;5050676;28;19977;-83
2022/01/14 02:52:42;;;;;;;;;;;;;;;-3.57;100.00;101478.66;5036699;28;20301;-83
2022/01/14 02:55:19;;;;;;;;;;;;;;;-3.60;100.00;101463.00;5034027;28;19958;-82
2022/01/14 02:57:45;;;;;;;;;;;;;;;-3.62;100.00;101474.13;5053481;28;19916;-83
2022/01/14 03:00:11;;;;;;;;;;;;;;;-3.61;100.00;101470.34;5047425;28;20019;-83
2022/01/14 03:02:36;;;;;;;;;;;;;;;-3.62;100.00;101465.19;5045846;28;20425;-82
2022/01/14 03:05:02;;;;;;;;;;;;;;;-3.68;100.00;101461.81;5016918;28;20393;-82
2022/01/14 03:07:28;;;;;;;;;;;;;;;-3.71;100.00;101465.13;5049231;28;19948;-82
2022/01/14 03:09:53;;;;;;;;;;;;;;;-3.68;100.00;101455.59;5028392;28;19921;-82
2022/01/14 03:12:18;;;;;;;;;;;;;;;-3.69;100.00;101448.56;5050959;28;20011;-82
2022/01/14 03:14:45;;;;;;;;;;;;;;;-3.72;100.00;101447.28;5051040;28;19924;-82
2022/01/14 03:17:10;;;;;;;;;;;;;;;-3.70;100.00;101442.34;5029603;28;19928;-83
2022/01/14 03:19:36;;;;;;;;;;;;;;;-3.65;100.00;101449.56;5031148;28;19913;-83
2022/01/14 03:22:18;;;;;;;;;;;;;;;-3.63;100.00;101447.31;5047304;28;19960;-83
2022/01/14 03:27:09;;;;;;;;;;;;;;;-3.69;100.00;101433.09;5062602;28;19924;-83
2022/01/14 03:29:35;;;;;;;;;;;;;;;-3.67;100.00;101430.88;5051368;28;19917;-83
2022/01/14 03:32:01;;;;;;;;;;;;;;;-3.71;100.00;101426.34;5050398;28;20371;-83
2022/01/14 03:34:26;;;;;;;;;;;;;;;-3.74;100.00;101424.28;5016087;28;19921;-83
2022/01/14 03:36:52;;;;;;;;;;;;;;;-3.72;100.00;101427.50;5032855;28;19924;-83
2022/01/14 03:39:17;;;;;;;;;;;;;;;-3.73;100.00;101415.84;5036316;28;19924;-83
2022/01/14 03:41:43;;;;;;;;;;;;;;;-3.79;100.00;101427.91;5055006;28;19920;-83
2022/01/14 03:44:08;;;;;;;;;;;;;;;-3.82;100.00;101413.06;5050300;28;19913;-82
2022/01/14 03:46:34;;;;;;;;;;;;;;;-3.83;100.00;101416.88;5036015;28;20003;-83
2022/01/14 03:48:59;;;;;;;;;;;;;;;-3.82;100.00;101412.25;5051697;28;20392;-83
2022/01/14 03:51:26;;;;;;;;;;;;;;;-3.79;100.00;101407.00;5054821;28;20346;-83
2022/01/14 03:53:52;;;;;;;;;;;;;;;-3.80;100.00;101404.63;5053644;28;19959;-82
2022/01/14 03:56:17;;;;;;;;;;;;;;;-3.81;100.00;101403.81;5028792;28;19949;-82
2022/01/14 03:58:43;;;;;;;;;;;;;;;-3.82;100.00;101415.78;5033419;28;19921;-82
2022/01/14 04:01:12;;;;;;;;;;;;;;;-3.82;100.00;101413.06;5041577;28;19963;-82
2022/01/14 04:03:37;;;;;;;;;;;;;;;-3.82;100.00;101414.97;5053955;28;19924;-82
2022/01/14 04:06:03;;;;;;;;;;;;;;;-3.79;100.00;101406.22;5053894;28;19921;-82
2022/01/14 04:08:28;;;;;;;;;;;;;;;-3.78;100.00;101403.19;5052160;28;19925;-77
2022/01/14 04:10:56;;;;;;;;;;;;;;;-3.81;100.00;101401.13;5024251;28;19921;-76
2022/01/14 04:13:34;;;;;;;;;;;;;;;-3.82;100.00;101402.22;5044154;28;19993;-77
2022/01/14 04:16:00;;;;;;;;;;;;;;;-3.81;100.00;101406.53;5022045;28;19917;-78
2022/01/14 04:18:26;;;;;;;;;;;;;;;-3.82;100.00;101396.78;5034056;28;19924;-76
2022/01/14 04:20:51;;;;;;;;;;;;;;;-3.82;100.00;101396.78;5037170;28;19974;-78
2022/01/14 04:23:18;;;;;;;;;;;;;;;-3.85;100.00;101377.63;5046156;28;19970;-77
2022/01/14 04:25:44;;;;;;;;;;;;;;;-3.89;100.00;101374.75;5055799;28;19917;-77
2022/01/14 04:28:10;;;;;;;;;;;;;;;-3.87;100.00;101375.22;5054161;28;19924;-77
2022/01/14 04:30:36;;;;;;;;;;;;;;;-3.88;100.00;101381.75;5044410;28;19923;-78
2022/01/14 04:33:02;;;;;;;;;;;;;;;-3.91;100.00;101366.09;5053735;28;20000;-77
2022/01/14 04:35:28;;;;;;;;;;;;;;;-3.91;100.00;101371.53;5056162;28;19927;-77
2022/01/14 04:37:53;;;;;;;;;;;;;;;-3.88;100.00;101373.59;5052530;28;19920;-77
2022/01/14 04:40:19;;;;;;;;;;;;;;;-3.90;100.00;101362.28;5053143;28;19917;-77
2022/01/14 04:42:45;;;;;;;;;;;;;;;-3.93;100.00;101368.34;5052534;28;19917;-77
2022/01/14 04:45:27;;;;;;;;;;;;;;;-3.93;100.00;101370.25;5036539;28;19927;-77
2022/01/14 04:47:53;;;;;;;;;;;;;;;-3.91;100.00;101360.69;5043023;28;19943;-77
2022/01/14 04:50:19;;;;;;;;;;;;;;;-3.88;100.00;101365.47;5040456;28;20345;-77
2022/01/14 04:52:46;;;;;;;;;;;;;;;-3.86;100.00;101363.28;5040238;28;19912;-77
2022/01/14 04:55:12;;;;;;;;;;;;;;;-3.86;100.00;101366.00;5017701;28;19925;-77
2022/01/14 04:57:37;;;;;;;;;;;;;;;-3.91;100.00;101365.28;5031655;28;19917;-77
2022/01/14 05:00:04;;;;;;;;;;;;;;;-3.92;100.00;101363.72;5034108;28;19944;-77
2022/01/14 05:02:30;;;;;;;;;;;;;;;-3.91;100.00;101366.09;5050973;28;20007;-77
2022/01/14 05:04:57;;;;;;;;;;;;;;;-3.93;100.00;101368.34;5038224;28;20008;-77
2022/01/14 05:07:25;;;;;;;;;;;;;;;-3.94;100.00;101365.91;5034635;28;19940;-77
2022/01/14 05:12:34;;;;;;;;;;;;;;;-3.93;100.00;101373.75;5053021;28;19968;-77
2022/01/14 05:15:01;;;;;;;;;;;;;;;-3.95;100.00;101359.69;5051946;28;19977;-77
2022/01/14 05:17:26;;;;;;;;;;;;;;;-3.97;100.00;101361.94;5050708;28;20381;-77
2022/01/14 05:19:52;;;;;;;;;;;;;;;-3.99;100.00;101355.19;5041892;28;19970;-77
2022/01/14 05:22:17;;;;;;;;;;;;;;;-4.07;100.00;101361.34;5036741;28;19917;-77
2022/01/14 05:24:43;;;;;;;;;;;;;;;-4.05;100.00;101354.53;5049528;28;19928;-77
2022/01/14 05:27:09;;;;;;;;;;;;;;;-4.13;100.00;101351.75;5048153;28;20421;-77
2022/01/14 05:29:34;;;;;;;;;;;;;;;-4.15;100.00;101346.63;5032973;28;19915;-77
2022/01/14 05:32:03;;;;;;;;;;;;;;;-4.19;100.00;101342.13;5034057;28;20014;-78
2022/01/14 05:34:33;;;;;;;;;;;;;;;-4.18;100.00;101339.13;5051839;28;20297;-77
2022/01/14 05:36:58;;;;;;;;;;;;;;;-4.16;100.00;101336.09;5045877;28;20016;-77
2022/01/14 05:39:24;;;;;;;;;;;;;;;-4.15;100.00;101338.50;5044544;28;20498;-77
2022/01/14 05:41:50;;;;;;;;;;;;;;;-4.14;100.00;101334.69;5050949;28;19917;-76
2022/01/14 05:44:15;;;;;;;;;;;;;;;-4.16;100.00;101338.81;5051893;28;19924;-76
2022/01/14 05:46:41;;;;;;;;;;;;;;;-4.15;100.00;101333.06;5063226;28;19956;-77
2022/01/14 05:49:06;;;;;;;;;;;;;;;-4.21;100.00;101334.31;5038449;28;19917;-77
2022/01/14 05:51:32;;;;;;;;;;;;;;;-4.18;100.00;101325.56;5040360;28;19920;-77
2022/01/14 05:53:57;;;;;;;;;;;;;;;-4.19;100.00;101321.25;5044885;28;19917;-77
2022/01/14 05:56:22;;;;;;;;;;;;;;;-4.22;100.00;101316.44;5022263;28;19978;-77
2022/01/14 05:58:48;;;;;;;;;;;;;;;-4.25;100.00;101319.78;5031588;28;19974;-77
2022/01/14 06:01:13;;;;;;;;;;;;;;;-4.28;100.00;101318.47;5034022;28;19960;-83
2022/01/14 06:03:39;;;;;;;;;;;;;;;-4.31;100.00;101324.50;5043453;28;19921;-83
2022/01/14 06:06:04;;;;;;;;;;;;;;;-4.31;100.00;101321.00;5046327;28;19917;-83
2022/01/14 06:08:29;;;;;;;;;;;;;;;-4.28;100.00;101318.47;5029214;28;19956;-82
2022/01/14 06:10:55;;;;;;;;;;;;;;;-4.31;100.00;101299.31;5032508;28;19917;-82
2022/01/14 06:13:20;;;;;;;;;;;;;;;-4.30;100.00;101315.28;5048850;28;19921;-82
2022/01/14 06:15:45;;;;;;;;;;;;;;;-4.34;100.00;101306.16;5041278;28;19917;-83
2022/01/14 06:18:11;;;;;;;;;;;;;;;-4.27;100.00;101303.03;5023359;28;20465;-82
2022/01/14 06:20:36;;;;;;;;;;;;;;;-4.23;100.00;101314.84;5030425;28;20011;-83
2022/01/14 06:23:02;;;;;;;;;;;;;;;-4.22;100.00;101305.63;5041180;28;20024;-83
2022/01/14 06:25:27;;;;;;;;;;;;;;;-4.16;100.00;101309.78;5045126;28;20477;-82
2022/01/14 06:27:53;;;;;;;;;;;;;;;-4.16;100.00;101304.38;5046978;28;19924;-82
2022/01/14 06:30:18;;;;;;;;;;;;;;;-4.13;100.00;101276.69;5045350;28;19927;-82
2022/01/14 06:32:44;;;;;;;;;;;;;;;-4.06;100.00;101308.75;5044237;28;19995;-83
2022/01/14 06:35:10;;;;;;;;;;;;;;;-4.07;100.00;101297.13;5047549;28;19916;-82
2022/01/14 06:37:35;;;;;;;;;;;;;;;-4.03;100.00;101292.69;5045611;28;19916;-82
2022/01/14 06:40:01;;;;;;;;;;;;;;;-4.00;100.00;101292.06;5048798;28;19939;-84
2022/01/14 06:42:26;;;;;;;;;;;;;;;-4.00;100.00;101291.28;5045631;28;19924;-82
2022/01/14 06:44:51;;;;;;;;;;;;;;;-3.96;100.00;101287.59;5046045;28;20019;-83
2022/01/14 06:47:17;;;;;;;;;;;;;;;-3.91;100.00;101290.19;5041546;28;19928;-83
2022/01/14 06:49:42;;;;;;;;;;;;;;;-3.92;100.00;101299.44;5042215;28;19921;-83
2022/01/14 06:52:08;;;;;;;;;;;;;;;-3.94;100.00;101295.44;5043616;28;19928;-83
2022/01/14 06:54:33;;;;;;;;;;;;;;;-3.89;100.00;101296.13;5045988;28;19960;-83
2022/01/14 06:56:59;;;;;;;;;;;;;;;-3.87;100.00;101298.50;5043045;28;20393;-83
2022/01/14 06:59:24;;;;;;;;;;;;;;;-3.82;100.00;101299.19;5049236;28;19963;-84
2022/01/14 07:01:50;;;;;;;;;;;;;;;-3.70;100.00;101300.53;5048228;28;19924;-83
2022/01/14 07:04:15;;;;;;;;;;;;;;;-3.62;100.00;101308.72;5046163;28;19920;-83
2022/01/14 07:06:41;;;;;;;;;;;;;;;-3.55;100.00;101302.84;5047786;28;19917;-83
2022/01/14 07:09:06;;;;;;;;;;;;;;;-3.44;100.00;101310.41;5045367;28;20022;-86
2022/01/14 07:11:36;;;;;;;;;;;;;;;-3.38;100.00;101311.06;5067437;28;19920;-86
2022/01/14 07:14:02;;;;;;;;;;;;;;;-3.28;100.00;101318.13;5058344;28;19928;-86
2022/01/14 07:16:27;;;;;;;;;;;;;;;-3.28;100.00;101297.22;5091956;28;19988;-87
2022/01/14 07:18:53;;;;;;;;;;;;;;;-3.21;100.00;101286.72;5097916;28;19919;-85
2022/01/14 07:21:18;;;;;;;;;;;;;;;-3.21;100.00;101297.56;5098561;28;19917;-85
2022/01/14 07:23:44;;;;;;;;;;;;;;;-3.10;100.00;101282.59;5098784;28;19912;-86
2022/01/14 07:26:09;;;;;;;;;;;;;;;-3.03;100.00;101296.50;5098718;28;19911;-84
2022/01/14 07:28:34;;;;;;;;;;;;;;;-2.99;100.00;101283.88;5086385;28;19916;-85
2022/01/14 07:30:59;;;;;;;;;;;;;;;-2.83;100.00;101285.03;5077614;28;20278;-86
2022/01/14 07:33:25;;;;;;;;;;;;;;;-2.70;100.00;101287.94;5061796;28;19917;-86
2022/01/14 07:35:50;;;;;;;;;;;;;;;-2.53;100.00;101291.47;5062731;28;19923;-85
2022/01/14 07:38:16;;;;;;;;;;;;;;;-2.40;100.00;101295.97;5055105;28;21077;-87
2022/01/14 07:40:41;;;;;;;;;;;;;;;-2.27;100.00;101286.06;5053602;28;20012;-86
2022/01/14 07:43:06;;;;;;;;;;;;;;;-2.29;100.00;101274.69;5053242;28;19923;-86
2022/01/14 07:45:32;;;;;;;;;;;;;;;-2.10;100.00;101305.06;5053438;28;19939;-86
2022/01/14 07:47:57;;;;;;;;;;;;;;;-2.10;100.00;101275.16;5053368;28;19921;-86
2022/01/14 07:50:22;;;;;;;;;;;;;;;-1.92;100.00;101284.88;5053205;28;19979;-86
2022/01/14 07:52:48;;;;;;;;;;;;;;;-1.80;100.00;101286.13;5053103;28;20006;-86
2022/01/14 07:55:13;;;;;;;;;;;;;;;-1.79;100.00;101265.97;5036438;28;19924;-79
2022/01/14 07:57:39;;;;;;;;;;;;;;;-1.73;100.00;101261.94;5013050;28;19920;-79
2022/01/14 08:00:06;;;;;;;;;;;;;;;-1.56;100.00;101280.94;5044340;28;19924;-79
2022/01/14 08:02:32;;;;;;;;;;;;;;;-1.45;100.00;101277.53;5052702;28;19921;-79
2022/01/14 08:04:58;;;;;;;;;;;;;;;-1.35;100.00;101265.50;5052766;28;19917;-79
2022/01/14 08:07:25;;;;;;;;;;;;;;;-1.17;100.00;101267.00;5052688;28;19942;-79
2022/01/14 08:09:51;;;;;;;;;;;;;;;-1.00;100.00;101274.28;5052730;28;19991;-79
2022/01/14 08:12:16;;;;;;;;;;;;;;;-0.89;100.00;101266.53;5034325;28;20015;-79
2022/01/14 08:14:42;;;;;;;;;;;;;;;-0.76;100.00;101265.47;5052621;28;19928;-79
2022/01/14 08:17:07;;;;;;;;;;;;;;;-0.69;100.00;101258.41;5052704;28;20019;-80
2022/01/14 08:19:33;;;;;;;;;;;;;;;-0.66;100.00;101248.75;5052266;28;19935;-79
2022/01/14 08:22:02;;;;;;;;;;;;;;;-0.45;99.23;101274.09;5052250;28;19916;-79
2022/01/14 08:24:27;;;;;;;;;;;;;;;-0.38;100.00;101266.16;5052165;28;19923;-80
2022/01/14 08:26:53;;;;;;;;;;;;;;;-0.25;100.00;101278.72;5051917;28;19920;-79
2022/01/14 08:29:18;;;;;;;;;;;;;;;-0.21;100.00;101271.47;5052035;28;19921;-79
2022/01/14 08:31:43;;;;;;;;;;;;;;;-0.21;100.00;101265.22;5053198;28;19917;-79
2022/01/14 08:34:09;;;;;;;;;;;;;;;-0.09;99.19;101263.34;5052137;28;19927;-80
2022/01/14 08:36:34;;;;;;;;;;;;;;;-0.04;99.68;101259.63;5048302;28;20003;-79
2022/01/14 08:39:00;;;;;;;;;;;;;;;0.07;99.49;101260.78;5051649;28;20317;-79
2022/01/14 08:41:29;;;;;;;;;;;;;;;0.16;98.94;101258.75;5051360;28;19928;-79
2022/01/14 08:43:55;;;;;;;;;;;;;;;0.18;95.22;101251.03;5051519;28;20336;-79
2022/01/14 08:46:20;;;;;;;;;;;;;;;0.32;95.90;101250.72;5052059;28;20000;-79
2022/01/14 08:48:45;;;;;;;;;;;;;;;0.47;94.23;101253.59;5051702;28;20091;-79
2022/01/14 08:51:11;;;;;;;;;;;;;;;0.57;91.86;101255.06;5052015;28;19920;-79
2022/01/14 08:53:36;;;;;;;;;;;;;;;0.50;94.30;101246.63;5051579;28;19928;-87
2022/01/14 08:56:02;;;;;;;;;;;;;;;0.56;96.55;101253.47;5051821;28;20136;-87
2022/01/14 08:58:27;;;;;;;;;;;;;;;0.49;96.05;101228.66;5050951;28;19921;-87
2022/01/14 09:00:53;;;;;;;;;;;;;;;0.53;96.70;101239.72;5051885;28;19923;-87
2022/01/14 09:03:18;;;;;;;;;;;;;;;0.64;97.48;101225.28;5051141;28;20007;-87
2022/01/14 09:05:44;;;;;;;;;;;;;;;0.71;97.44;101230.94;5034360;28;20004;-86
2022/01/14 09:08:09;;;;;;;;;;;;;;;0.92;93.07;101234.38;5051828;28;19962;-87
2022/01/14 09:10:34;;;;;;;;;;;;;;;1.09;90.47;101230.59;5051253;28;19916;-87
2022/01/14 09:13:00;;;;;;;;;;;;;;;1.21;89.82;101227.84;5051438;28;19970;-87
2022/01/14 09:15:25;;;;;;;;;;;;;;;1.51;88.20;101228.31;5050815;28;19916;-87
2022/01/14 09:17:50;;;;;;;;;;;;;;;1.46;91.85;101225.81;5051549;28;19917;-87
2022/01/14 09:20:16;;;;;;;;;;;;;;;1.54;89.38;101219.41;5050931;28;19967;-87
2022/01/14 09:22:47;;;;;;;;;;;;;;;1.63;90.13;101224.72;5051440;28;19912;-87
2022/01/14 09:25:13;;;;;;;;;;;;;;;1.67;91.13;101212.75;5050654;28;20380;-86
2022/01/14 09:27:39;;;;;;;;;;;;;;;1.78;87.88;101216.56;5051334;28;19916;-87
2022/01/14 09:30:05;;;;;;;;;;;;;;;1.82;88.50;101208.47;5055390;28;19916;-87
2022/01/14 09:32:31;;;;;;;;;;;;;;;1.85;89.93;101197.63;5057551;28;20007;-87
2022/01/14 09:34:56;;;;;;;;;;;;;;;2.02;89.21;101198.44;5050406;28;19917;-87
2022/01/14 09:37:21;;;;;;;;;;;;;;;2.12;87.91;101190.50;5051125;28;20410;-87
2022/01/14 09:39:47;;;;;;;;;;;;;;;2.18;89.70;101182.84;5050633;28;19931;-87
2022/01/14 09:42:13;;;;;;;;;;;;;;;2.32;87.90;101180.44;5052265;28;20015;-86
2022/01/14 09:44:38;;;;;;;;;;;;;;;2.32;89.25;101177.69;5070415;28;19916;-87
2022/01/14 09:47:04;;;;;;;;;;;;;;;2.32;90.58;101180.44;5070991;28;20003;-87
2022/01/14 09:49:29;;;;;;;;;;;;;;;2.43;90.08;101177.97;5070822;28;20374;-85
2022/01/14 09:51:55;;;;;;;;;;;;;;;2.52;88.68;101179.38;5052918;28;19975;-87
2022/01/14 09:54:20;;;;;;;;;;;;;;;2.59;88.34;101176.78;5070565;28;19921;-87
2022/01/14 09:56:46;;;;;;;;;;;;;;;2.82;87.40;101163.25;5047542;28;19920;-88
2022/01/14 09:59:11;;;;;;;;;;;;;;;3.13;83.03;101167.84;5054657;28;20405;-87
2022/01/14 10:01:37;;;;;;;;;;;;;;;3.31;84.34;101158.03;5051549;28;19986;-87
2022/01/14 10:04:03;;;;;;;;;;;;;;;3.47;86.84;101150.53;5034308;28;19952;-87
2022/01/14 10:06:46;;;;;;;;;;;;;;;3.78;83.37;101132.28;5030584;28;19975;-88
2022/01/14 10:09:19;;;;;;;;;;;;;;;4.05;83.26;101136.69;5029521;28;19924;-87
2022/01/14 10:11:58;;;;;;;;;;;;;;;4.32;80.30;101140.28;5027804;28;19917;-87
2022/01/14 10:14:26;;;;;;;;;;;;;;;4.38;80.17;101117.63;5028134;28;19917;-88
2022/01/14 10:16:55;;;;;;;;;;;;;;;4.52;83.69;101117.84;5030632;28;20310;-88
2022/01/14 10:19:21;;;;;;;;;;;;;;;4.80;79.83;101111.97;5027745;28;20361;-87
2022/01/14 10:21:47;;;;;;;;;;;;;;;5.09;77.52;101113.94;5030583;28;19917;-88
2022/01/14 10:24:13;;;;;;;;;;;;;;;5.30;80.68;101102.38;5029762;28;20015;-87
2022/01/14 10:26:47;;;;;;;;;;;;;;;5.35;80.86;101101.25;5029441;28;19978;-87
2022/01/14 10:29:13;;;;;;;;;;;;;;;5.53;72.31;101105.78;5029473;28;19928;-87
2022/01/14 10:31:39;;;;;;;;;;;;;;;5.66;77.70;101105.53;5030025;28;19913;-79
2022/01/14 10:34:14;;;;;;;;;;;;;;;5.76;81.46;101105.63;5029980;28;19921;-79
2022/01/14 10:36:43;;;;;;;;;;;;;;;5.76;77.10;101093.81;5027244;28;19917;-79
2022/01/14 10:39:22;;;;;;;;;;;;;;;5.89;80.31;101095.16;5029491;28;19917;-79
2022/01/14 10:41:47;;;;;;;;;;;;;;;6.00;79.16;101094.09;5010610;28;20012;-79
2022/01/14 10:44:29;;;;;;;;;;;;;;;6.07;77.70;101091.38;5029410;28;20015;-79
2022/01/14 10:47:13;;;;;;;;;;;;;;;6.41;69.88;101089.28;5029218;28;19978;-79
2022/01/14 10:49:39;;;;;;;;;;;;;;;6.79;70.45;101081.66;5029699;28;19916;-79
2022/01/14 10:52:12;;;;;;;;;;;;;;;6.86;69.65;101084.44;5029024;28;19913;-80
2022/01/14 10:54:39;;;;;;;;;;;;;;;7.04;70.20;101080.56;5029242;28;19959;-80
2022/01/14 10:57:17;;;;;;;;;;;;;;;7.09;71.15;101084.94;5029832;28;19913;-79
2022/01/14 10:59:43;;;;;;;;;;;;;;;7.18;70.65;101093.66;5027409;28;19921;-79
2022/01/14 11:02:29;;;;;;;;;;;;;;;7.32;68.81;101088.16;5029545;28;19920;-79
2022/01/14 11:05:00;;;;;;;;;;;;;;;7.54;67.60;101082.72;5048447;28;19920;-79
2022/01/14 11:07:25;;;;;;;;;;;;;;;7.57;66.44;101076.41;5047825;28;19951;-79
2022/01/14 11:09:52;;;;;;;;;;;;;;;7.66;66.06;101051.97;5049315;28;19948;-80
2022/01/14 11:12:17;;;;;;;;;;;;;;;7.76;65.47;101065.00;5031424;28;19978;-79
2022/01/14 11:14:43;;;;;;;;;;;;;;;7.86;64.35;101048.44;5049274;28;19920;-79
2022/01/14 11:17:09;;;;;;;;;;;;;;;7.94;64.41;101051.97;5049627;28;19913;-79
2022/01/14 11:19:34;;;;;;;;;;;;;;;8.07;63.82;101044.09;5049528;28;19991;-79
2022/01/14 11:24:46;;;;;;;;;;;;;;;8.23;62.08;101038.94;5048878;28;19982;-79
2022/01/14 11:27:11;;;;;;;;;;;;;;;8.25;62.37;101031.81;5030892;28;20370;-87
2022/01/14 11:29:41;;;;;;;;;;;;;;;8.33;61.34;101014.06;5031687;28;19924;-87
2022/01/14 11:32:07;;;;;;;;;;;;;;;8.66;61.36;101025.84;5031972;28;19917;-87
2022/01/14 11:34:36;;;;;;;;;;;;;;;8.73;60.87;101012.78;5049405;28;20453;-86
2022/01/14 11:37:03;;;;;;;;;;;;;;;8.75;60.58;101009.59;5047330;28;19963;-87
2022/01/14 11:39:30;;;;;;;;;;;;;;;8.79;60.73;101002.88;5048978;28;20082;-87
2022/01/14 11:42:17;;;;;;;;;;;;;;;8.87;59.72;101003.63;5049571;28;19979;-86
2022/01/14 11:44:43;;;;;;;;;;;;;;;9.02;59.63;100991.28;5047267;28;19916;-86
2022/01/14 11:47:36;;;;;;;;;;;;;;;9.24;60.20;100984.47;5049441;28;19917;-86
2022/01/14 11:50:02;;;;;;;;;;;;;;;9.33;58.17;100973.72;5048981;28;19963;-86
2022/01/14 11:52:34;;;;;;;;;;;;;;;9.51;58.98;100981.09;5048953;28;19960;-86
2022/01/14 11:54:59;;;;;;;;;;;;;;;9.56;57.73;100967.63;5048934;28;19959;-86
2022/01/14 11:57:45;;;;;;;;;;;;;;;9.61;58.14;100967.19;5050185;28;19960;-86
2022/01/14 12:00:26;;;;;;;;;;;;;;;9.77;58.08;100973.00;5051576;28;19929;-86
2022/01/14 12:02:55;;;;;;;;;;;;;;;9.92;57.23;100970.88;5051675;28;20374;-79
2022/01/14 12:05:24;;;;;;;;;;;;;;;9.82;57.77;100953.16;5050225;28;19916;-79
2022/01/14 12:08:05;;;;;;;;;;;;;;;10.10;57.17;100952.09;5053181;28;19917;-79
2022/01/14 12:10:38;;;;;;;;;;;;;;;10.35;56.98;100954.66;5050926;28;19921;-79
2022/01/14 12:13:21;;;;;;;;;;;;;;;10.40;56.83;100933.97;5050711;28;19921;-80
2022/01/14 12:15:55;;;;;;;;;;;;;;;10.70;56.32;100931.22;5050722;28;19916;-79
2022/01/14 12:18:40;;;;;;;;;;;;;;;10.66;54.94;100933.25;5052822;28;19960;-79
2022/01/14 12:21:05;;;;;;;;;;;;;;;10.66;54.53;100930.50;5050469;28;20266;-79
2022/01/14 12:23:31;;;;;;;;;;;;;;;10.67;54.68;100932.06;5052298;28;19928;-79
2022/01/14 12:25:56;;;;;;;;;;;;;;;10.90;54.27;100923.03;5051839;28;19913;-79
2022/01/14 12:28:23;;;;;;;;;;;;;;;10.86;54.03;100923.09;5032236;28;19917;-79
2022/01/14 12:31:01;;;;;;;;;;;;;;;10.98;54.61;100925.28;5052258;28;19916;-79
2022/01/14 12:33:37;;;;;;;;;;;;;;;10.88;53.45;100917.88;5050505;28;19921;-79
2022/01/14 12:36:12;;;;;;;;;;;;;;;10.95;53.92;100923.34;5050114;28;19924;-79
2022/01/14 12:38:41;;;;;;;;;;;;;;;11.07;53.23;100924.78;5052158;28;19917;-79
2022/01/14 12:41:19;;;;;;;;;;;;;;;11.01;52.75;100923.66;5046798;28;20352;-79
2022/01/14 12:43:52;;;;;;;;;;;;;;;11.22;53.19;100918.59;5050296;28;19929;-79
2022/01/14 12:46:34;;;;;;;;;;;;;;;11.28;53.35;100913.34;5051893;28;20471;-79
2022/01/14 12:48:59;;;;;;;;;;;;;;;11.14;52.72;100917.13;5050374;28;19963;-79
2022/01/14 12:51:27;;;;;;;;;;;;;;;11.09;52.64;100911.25;5051793;28;19921;-78
2022/01/14 12:53:54;;;;;;;;;;;;;;;11.01;53.13;100910.56;5034142;28;19924;-79
2022/01/14 12:56:20;;;;;;;;;;;;;;;11.03;53.25;100899.84;5051777;28;19917;-79
2022/01/14 12:59:05;;;;;;;;;;;;;;;10.91;52.92;100911.53;5052128;28;19928;-79
2022/01/14 13:01:34;;;;;;;;;;;;;;;10.84;52.92;100908.81;5049238;28;20011;-78